Time;durP1;ratioP1;P1;durP2;ratioP2;P2;SDS_P1;SDS_P2;PMS_P1;PMS_P2;Temp;Humidity;BMP_temperature;BMP_pressure;BME280_temperature;BME280_humidity;BME280_pressure;Samples;Min_cycle;Max_cycle;Signal;HPM_P1;HPM_P2
2022/12/22 03:32:19;;;;;;;1.50;1.40;;;;;13.50;98218.00;;;;16715604;28;20731;-48
2022/12/22 03:40:23;;;;;;;1.23;1.13;;;;;13.50;98206.00;;;;16763370;28;20297;-48
2022/12/22 03:48:25;;;;;;;1.47;1.30;;;;;13.20;98179.00;;;;16753477;28;20190;-48
2022/12/22 03:56:29;;;;;;;1.10;1.00;;;;;13.30;98179.00;;;;16737034;28;20208;-47
2022/12/22 04:04:31;;;;;;;1.20;1.10;;;;;13.40;98178.00;;;;16730813;28;20251;-48
2022/12/22 04:20:55;;;;;;;2.07;1.23;;;;;13.40;98162.00;;;;16745728;28;20221;-48
2022/12/22 04:28:59;;;;;;;1.40;0.93;;;;;13.50;98150.00;;;;16723303;28;20309;-48
2022/12/22 04:37:01;;;;;;;1.07;1.00;;;;;13.50;98142.00;;;;16736540;28;20670;-46
2022/12/22 04:45:06;;;;;;;1.63;1.10;;;;;13.50;98128.00;;;;16754319;28;20303;-48
2022/12/22 04:53:08;;;;;;;1.57;1.20;;;;;13.50;98127.00;;;;16742037;28;20220;-48
2022/12/22 05:01:15;;;;;;;1.00;0.80;;;;;13.60;98112.00;;;;16725579;28;20227;-48
2022/12/22 05:09:17;;;;;;;2.40;1.07;;;;;13.80;98106.00;;;;16705241;28;20303;-47
2022/12/22 05:17:21;;;;;;;2.50;1.33;;;;;14.10;98115.00;;;;16708510;28;20234;-47
2022/12/22 05:25:23;;;;;;;3.40;1.13;;;;;14.30;98122.00;;;;16704409;28;20222;-48
2022/12/22 05:33:27;;;;;;;3.37;1.43;;;;;14.30;98125.00;;;;16717350;28;20217;-48
2022/12/22 05:41:29;;;;;;;3.83;2.10;;;;;14.40;98125.00;;;;16738416;28;20222;-48
2022/12/22 05:49:34;;;;;;;5.23;1.23;;;;;14.40;98117.00;;;;16728899;28;20659;-48
2022/12/22 05:57:36;;;;;;;4.47;1.40;;;;;14.40;98118.00;;;;16738601;28;20707;-48
2022/12/22 06:05:40;;;;;;;2.93;1.30;;;;;14.30;98113.00;;;;16701325;28;20838;-48
2022/12/22 06:13:42;;;;;;;2.13;1.10;;;;;14.10;98116.00;;;;16689930;28;20217;-49
2022/12/22 06:21:46;;;;;;;5.30;1.30;;;;;14.10;98116.00;;;;16708378;28;20231;-47
2022/12/22 06:29:49;;;;;;;4.73;1.50;;;;;14.00;98122.00;;;;16693898;28;20214;-48
2022/12/22 06:37:52;;;;;;;4.37;2.30;;;;;13.80;98125.00;;;;16701053;28;20224;-47
2022/12/22 06:45:55;;;;;;;6.73;2.77;;;;;13.80;98111.00;;;;16686131;28;20245;-48
2022/12/22 06:53:58;;;;;;;4.53;1.60;;;;;13.90;98117.00;;;;16692333;28;20253;-47
2022/12/22 07:02:01;;;;;;;9.40;3.63;;;;;14.00;98123.00;;;;16682737;28;20222;-48
2022/12/22 07:10:06;;;;;;;5.07;1.50;;;;;14.00;98136.00;;;;16656620;28;20211;-48
2022/12/22 07:18:08;;;;;;;4.67;2.17;;;;;14.20;98144.00;;;;16618830;28;20207;-48
2022/12/22 07:26:13;;;;;;;5.43;2.07;;;;;13.90;98133.00;;;;16633572;28;20218;-48
2022/12/22 07:34:15;;;;;;;7.13;3.10;;;;;13.80;98142.00;;;;16659961;28;20656;-48
2022/12/22 07:50:39;;;;;;;7.97;1.87;;;;;14.00;98188.00;;;;16631222;28;20218;-47
2022/12/22 07:58:42;;;;;;;5.40;1.90;;;;;13.80;98185.00;;;;16662710;28;20733;-48
2022/12/22 08:06:45;;;;;;;3.30;1.37;;;;;13.90;98137.00;;;;16681896;28;20220;-48
2022/12/22 08:14:49;;;;;;;6.87;2.20;;;;;14.10;98150.00;;;;16683852;28;20746;-48
2022/12/22 08:22:51;;;;;;;3.70;1.73;;;;;14.10;98150.00;;;;16698027;28;20229;-48
2022/12/22 08:30:55;;;;;;;5.63;1.73;;;;;14.10;98152.00;;;;16705079;28;20224;-48
2022/12/22 08:38:57;;;;;;;6.70;3.57;;;;;14.10;98140.00;;;;16702984;28;20231;-48
2022/12/22 08:47:01;;;;;;;7.97;2.90;;;;;14.40;98141.00;;;;16712249;28;20204;-49
2022/12/22 08:55:04;;;;;;;4.70;2.30;;;;;14.60;98156.00;;;;16701077;28;20263;-49
2022/12/22 09:03:08;;;;;;;5.37;2.57;;;;;14.80;98158.00;;;;16671728;28;20236;-50
2022/12/22 09:11:10;;;;;;;4.70;1.73;;;;;14.80;98159.00;;;;16652616;28;20226;-50
2022/12/22 09:19:14;;;;;;;8.87;2.37;;;;;14.90;98162.00;;;;16647372;28;20222;-50
2022/12/22 09:27:16;;;;;;;4.47;2.00;;;;;14.60;98181.00;;;;16642331;28;20203;-50
2022/12/22 09:35:20;;;;;;;6.30;2.40;;;;;14.20;98180.00;;;;16598167;28;20210;-49
2022/12/22 09:43:27;;;;;;;5.73;2.20;;;;;14.50;98199.00;;;;16642150;28;20224;-49
2022/12/22 09:51:43;;;;;;;6.60;2.30;;;;;14.10;98186.00;;;;16613731;28;20250;-49
2022/12/22 09:59:46;;;;;;;8.00;2.20;;;;;14.10;98189.00;;;;16628171;28;20240;-49
2022/12/22 10:07:49;;;;;;;4.57;1.73;;;;;14.20;98200.00;;;;16707122;28;20213;-49
2022/12/22 10:15:52;;;;;;;5.43;2.03;;;;;14.20;98198.00;;;;16715280;28;20709;-49
2022/12/22 10:23:56;;;;;;;6.83;2.13;;;;;14.10;98214.00;;;;16698837;28;20226;-49
2022/12/22 10:32:01;;;;;;;7.27;2.50;;;;;14.30;98229.00;;;;16717863;28;20810;-49
2022/12/22 10:40:16;;;;;;;4.37;1.70;;;;;14.30;98240.00;;;;16738403;28;20225;-50
2022/12/22 10:48:26;;;;;;;5.43;1.63;;;;;14.50;98233.00;;;;16711013;28;20224;-48
2022/12/22 10:56:31;;;;;;;6.60;1.80;;;;;14.50;98234.00;;;;16707362;28;20190;-49
2022/12/22 11:04:34;;;;;;;3.60;1.77;;;;;14.40;98226.00;;;;16707081;28;20233;-49
2022/12/22 11:13:01;;;;;;;3.70;1.77;;;;;14.40;98211.00;;;;16680188;28;20217;-49
2022/12/22 11:21:07;;;;;;;7.57;4.10;;;;;14.70;98201.00;;;;16677062;28;20582;-49
2022/12/22 11:29:26;;;;;;;14.97;11.30;;;;;14.70;98203.00;;;;16680304;28;20272;-49
2022/12/22 11:37:35;;;;;;;4.77;1.63;;;;;14.60;98204.00;;;;16684129;28;20231;-49
2022/12/22 11:45:47;;;;;;;2.80;1.83;;;;;15.00;98200.00;;;;16704215;28;20229;-50
2022/12/22 11:54:02;;;;;;;1.77;1.10;;;;;14.80;98216.00;;;;16682637;28;20569;-50
2022/12/22 12:02:22;;;;;;;3.57;1.30;;;;;15.00;98204.00;;;;16689663;28;20232;-49
2022/12/22 12:10:28;;;;;;;2.87;1.40;;;;;14.80;98217.00;;;;16758490;28;20709;-49
2022/12/22 12:18:46;;;;;;;2.03;1.00;;;;;15.20;98219.00;;;;16761996;28;20233;-47
2022/12/22 12:26:56;;;;;;;3.43;1.20;;;;;15.80;98222.00;;;;16749484;28;20201;-46
2022/12/22 12:35:04;;;;;;;2.60;1.40;;;;;15.90;98209.00;;;;16751562;28;20225;-47
2022/12/22 12:43:09;;;;;;;1.63;0.70;;;;;15.40;98224.00;;;;16722305;28;20228;-47
2022/12/22 12:51:46;;;;;;;1.87;0.80;;;;;15.70;98242.00;;;;16696690;28;20229;-46
2022/12/22 12:59:50;;;;;;;3.33;2.17;;;;;15.40;98249.00;;;;16698742;28;20253;-48
2022/12/22 13:08:23;;;;;;;3.57;1.90;;;;;15.20;98263.00;;;;16708500;28;20216;-48
2022/12/22 13:16:28;;;;;;;3.00;2.33;;;;;15.30;98266.00;;;;16751999;28;20204;-49
2022/12/22 13:24:35;;;;;;;1.67;1.50;;;;;15.90;98299.00;;;;16740572;28;20238;-49
2022/12/22 13:32:41;;;;;;;4.60;1.57;;;;;15.00;98304.00;;;;16738880;28;20210;-48
2022/12/22 13:40:44;;;;;;;4.10;1.20;;;;;15.10;98298.00;;;;16731925;28;20225;-49
2022/12/22 13:48:48;;;;;;;2.20;1.60;;;;;15.60;98307.00;;;;16736734;28;20231;-49
2022/12/22 13:56:55;;;;;;;2.53;1.33;;;;;15.30;98323.00;;;;16729690;28;20798;-49
2022/12/22 14:05:07;;;;;;;2.27;1.30;;;;;15.50;98332.00;;;;16725635;28;20418;-49
2022/12/22 14:13:16;;;;;;;3.67;0.90;;;;;15.20;98338.00;;;;16719444;28;20218;-49
2022/12/22 14:21:18;;;;;;;5.03;1.53;;;;;15.40;98339.00;;;;16724789;28;21118;-49
2022/12/22 14:29:26;;;;;;;6.97;5.27;;;;;16.10;98340.00;;;;16764583;28;20220;-49
2022/12/22 14:37:29;;;;;;;6.47;1.87;;;;;14.90;98348.00;;;;16745961;28;20202;-49
2022/12/22 14:45:33;;;;;;;4.57;3.10;;;;;15.10;98350.00;;;;16753784;28;20265;-49
2022/12/22 14:53:39;;;;;;;7.00;4.47;;;;;15.30;98372.00;;;;16742650;28;20296;-49
2022/12/22 15:01:57;;;;;;;2.30;1.53;;;;;15.30;98374.00;;;;16752327;28;20225;-49
2022/12/22 15:10:01;;;;;;;5.93;2.10;;;;;15.20;98371.00;;;;16740417;28;20226;-49
2022/12/22 15:18:05;;;;;;;10.50;3.83;;;;;14.60;98389.00;;;;16719815;28;20203;-49
2022/12/22 15:26:08;;;;;;;6.97;4.30;;;;;14.30;98401.00;;;;16724195;28;20810;-49
2022/12/22 15:34:19;;;;;;;14.20;7.13;;;;;14.10;98402.00;;;;16707618;28;20573;-49
2022/12/22 15:42:21;;;;;;;9.50;2.40;;;;;14.60;98401.00;;;;16689972;28;20222;-49
2022/12/22 15:50:27;;;;;;;5.37;2.87;;;;;14.50;98410.00;;;;16696658;28;20215;-48
2022/12/22 15:58:33;;;;;;;7.90;4.70;;;;;14.40;98406.00;;;;16690500;28;20672;-49
2022/12/22 16:06:36;;;;;;;3.87;2.60;;;;;14.00;98407.00;;;;16683494;28;20234;-48
2022/12/22 16:14:39;;;;;;;8.23;2.93;;;;;14.40;98394.00;;;;16676764;28;20328;-48
2022/12/22 16:22:43;;;;;;;8.80;3.70;;;;;14.30;98389.00;;;;16662651;28;20284;-49
2022/12/22 16:30:46;;;;;;;9.83;3.57;;;;;14.40;98386.00;;;;16680743;28;20240;-49
2022/12/22 16:38:50;;;;;;;9.63;2.63;;;;;14.50;98375.00;;;;16689101;28;20222;-49
2022/12/22 16:46:52;;;;;;;8.20;2.30;;;;;14.20;98380.00;;;;16683589;28;20226;-49
2022/12/22 16:54:56;;;;;;;9.40;3.50;;;;;14.20;98381.00;;;;16688472;28;20215;-48
2022/12/22 17:03:00;;;;;;;10.17;3.80;;;;;14.30;98377.00;;;;16669531;28;20230;-49
2022/12/22 17:11:07;;;;;;;7.97;3.83;;;;;14.40;98372.00;;;;16636546;28;20218;-47
2022/12/22 17:19:11;;;;;;;10.63;4.37;;;;;14.40;98375.00;;;;16641227;28;20759;-49
2022/12/22 17:27:15;;;;;;;7.77;3.87;;;;;14.50;98363.00;;;;16643281;28;20218;-49
2022/12/22 17:35:20;;;;;;;15.63;4.00;;;;;14.60;98356.00;;;;16620624;28;20214;-50
2022/12/22 17:43:25;;;;;;;13.10;5.03;;;;;14.80;98350.00;;;;16617755;28;20229;-49
2022/12/22 17:51:28;;;;;;;7.47;3.87;;;;;14.80;98351.00;;;;16615257;28;20303;-49
2022/12/22 17:59:32;;;;;;;16.77;5.10;;;;;15.20;98336.00;;;;16624272;28;20235;-50
2022/12/22 18:07:34;;;;;;;14.10;4.07;;;;;14.80;98305.00;;;;16678851;28;20233;-49
2022/12/22 18:15:38;;;;;;;18.53;5.73;;;;;14.50;98297.00;;;;16709543;28;20218;-49
2022/12/22 18:23:41;;;;;;;15.50;9.30;;;;;14.50;98297.00;;;;16716179;28;20244;-48
2022/12/22 18:31:45;;;;;;;13.93;5.67;;;;;14.40;98283.00;;;;16725313;28;20225;-49
2022/12/22 18:39:47;;;;;;;13.43;4.40;;;;;14.30;98267.00;;;;16698815;28;20225;-49
2022/12/22 18:47:51;;;;;;;10.27;3.97;;;;;14.20;98272.00;;;;16691392;28;20214;-48
2022/12/22 18:55:54;;;;;;;13.63;4.50;;;;;14.10;98263.00;;;;16703764;28;20214;-48
2022/12/22 19:03:58;;;;;;;11.80;4.20;;;;;14.10;98246.00;;;;16683914;28;20227;-48
2022/12/22 19:12:00;;;;;;;9.50;4.27;;;;;14.20;98249.00;;;;16646281;28;20218;-48
2022/12/22 19:20:05;;;;;;;12.70;4.60;;;;;14.00;98241.00;;;;16649952;28;20229;-47
2022/12/22 19:28:12;;;;;;;12.13;4.40;;;;;14.00;98229.00;;;;16647446;28;20202;-49
2022/12/22 19:36:17;;;;;;;11.77;4.67;;;;;13.90;98223.00;;;;16624995;28;20357;-48
2022/12/22 19:44:22;;;;;;;18.40;5.97;;;;;13.90;98202.00;;;;16611002;28;20262;-49
2022/12/22 19:52:25;;;;;;;9.73;4.73;;;;;14.10;98187.00;;;;16601363;28;20224;-48
2022/12/22 20:00:28;;;;;;;15.97;6.00;;;;;14.10;98184.00;;;;16610591;28;20219;-47
2022/12/22 20:08:32;;;;;;;8.53;4.10;;;;;14.20;98172.00;;;;16663916;28;20211;-48
2022/12/22 20:16:34;;;;;;;7.33;3.30;;;;;14.40;98173.00;;;;16673123;28;20198;-48
2022/12/22 20:24:38;;;;;;;10.40;3.40;;;;;14.40;98167.00;;;;16670825;28;20335;-49
2022/12/22 20:32:40;;;;;;;10.60;3.60;;;;;14.20;98164.00;;;;16673536;28;20218;-49
2022/12/22 20:40:44;;;;;;;7.13;2.93;;;;;14.20;98152.00;;;;16661833;28;20210;-49
2022/12/22 20:48:48;;;;;;;6.17;3.60;;;;;14.20;98139.00;;;;16688719;28;20320;-48
2022/12/22 20:56:52;;;;;;;5.80;3.07;;;;;13.90;98122.00;;;;16717922;28;20289;-48
2022/12/22 21:04:54;;;;;;;11.13;3.47;;;;;13.80;98115.00;;;;16719236;28;20575;-48
2022/12/22 21:12:58;;;;;;;11.60;6.40;;;;;14.00;98115.00;;;;16730934;28;20210;-49
2022/12/22 21:21:01;;;;;;;5.70;2.07;;;;;14.00;98096.00;;;;16724699;28;20257;-48
2022/12/22 21:29:07;;;;;;;3.20;1.60;;;;;13.90;98086.00;;;;16741250;28;20228;-47
2022/12/22 21:37:16;;;;;;;4.93;1.93;;;;;14.30;98080.00;;;;16723425;28;20226;-48
2022/12/22 21:45:21;;;;;;;9.83;2.57;;;;;14.30;98074.00;;;;16725569;28;20244;-49
2022/12/22 21:53:24;;;;;;;5.30;3.07;;;;;14.10;98056.00;;;;16725220;28;20220;-48
2022/12/22 22:01:28;;;;;;;10.90;4.10;;;;;13.70;98024.00;;;;16714691;28;20226;-48
2022/12/22 22:09:30;;;;;;;8.13;2.80;;;;;13.50;97999.00;;;;16711423;28;20230;-49
2022/12/22 22:17:35;;;;;;;5.73;2.70;;;;;13.30;97992.00;;;;16697387;28;20198;-48
2022/12/22 22:25:37;;;;;;;5.13;2.53;;;;;13.30;97973.00;;;;16744772;28;20221;-46
2022/12/22 22:33:41;;;;;;;6.73;4.00;;;;;13.40;97958.00;;;;16744778;28;20213;-49
2022/12/22 22:41:43;;;;;;;5.30;2.10;;;;;13.20;97937.00;;;;16762106;28;20313;-47
2022/12/22 22:49:47;;;;;;;6.40;2.70;;;;;13.40;97929.00;;;;16717332;28;20216;-48
2022/12/22 22:57:50;;;;;;;5.83;2.80;;;;;13.30;97910.00;;;;16683315;28;20197;-48
2022/12/22 23:06:01;;;;;;;8.27;2.70;;;;;13.20;97896.00;;;;16688634;28;20348;-50
2022/12/22 23:14:04;;;;;;;7.23;3.40;;;;;13.10;97892.00;;;;16676763;28;20222;-47
2022/12/22 23:22:07;;;;;;;6.13;3.00;;;;;13.00;97888.00;;;;16680315;28;20257;-48
2022/12/22 23:30:11;;;;;;;4.30;2.13;;;;;13.10;97879.00;;;;16681568;28;20229;-49
2022/12/22 23:38:15;;;;;;;4.00;2.23;;;;;13.20;97865.00;;;;16690672;28;20208;-48
2022/12/22 23:46:18;;;;;;;3.17;1.50;;;;;13.30;97851.00;;;;16730767;28;20232;-48
2022/12/22 23:54:22;;;;;;;2.50;2.10;;;;;13.40;97844.00;;;;16736272;28;20213;-48
